createdAt,value
2023-05-04T00:02:24.560Z,3.10
2023-05-04T00:04:54.436Z,3.30
2023-05-04T00:07:23.531Z,3.60
2023-05-04T00:09:51.013Z,3.70
2023-05-04T00:12:18.233Z,3.53
2023-05-04T00:14:44.921Z,3.70
2023-05-04T00:17:12.689Z,3.80
2023-05-04T00:19:42.029Z,3.73
2023-05-04T00:22:09.179Z,4.20
2023-05-04T00:24:35.913Z,4.03
2023-05-04T00:27:02.684Z,4.20
2023-05-04T00:29:30.085Z,3.77
2023-05-04T00:31:57.284Z,3.80
2023-05-04T00:34:24.330Z,4.10
2023-05-04T00:36:51.098Z,3.90
2023-05-04T00:39:17.884Z,3.67
2023-05-04T00:41:45.821Z,3.50
2023-05-04T00:44:12.978Z,3.60
2023-05-04T00:46:42.747Z,3.80
2023-05-04T00:49:10.046Z,4.10
2023-05-04T00:51:37.106Z,3.63
2023-05-04T00:54:05.090Z,3.90
2023-05-04T00:56:33.176Z,3.93
2023-05-04T00:58:59.877Z,4.73
2023-05-04T01:01:27.244Z,4.13
2023-05-04T01:03:55.556Z,4.33
2023-05-04T01:06:38.784Z,3.90
2023-05-04T01:09:19.686Z,3.43
2023-05-04T01:12:14.609Z,4.20
2023-05-04T01:14:43.283Z,4.20
2023-05-04T01:17:11.622Z,4.13
2023-05-04T01:19:41.067Z,4.13
2023-05-04T01:22:07.735Z,4.00
2023-05-04T01:24:34.852Z,3.83
2023-05-04T01:27:09.347Z,3.90
2023-05-04T01:29:56.521Z,3.80
2023-05-04T01:32:24.516Z,3.40
2023-05-04T01:34:51.233Z,4.23
2023-05-04T01:37:17.901Z,4.43
2023-05-04T01:39:44.566Z,3.90
2023-05-04T01:42:11.276Z,3.43
2023-05-04T01:44:38.632Z,3.57
2023-05-04T01:47:05.465Z,4.23
2023-05-04T01:49:32.272Z,3.43
2023-05-04T01:51:59.053Z,4.00
2023-05-04T01:54:25.971Z,3.93
2023-05-04T01:56:52.754Z,3.67
2023-05-04T01:59:19.420Z,3.80
2023-05-04T02:01:46.211Z,4.50
2023-05-04T02:04:12.949Z,3.43
2023-05-04T02:06:39.669Z,4.23
2023-05-04T02:09:06.991Z,4.43
2023-05-04T02:11:33.716Z,3.40
2023-05-04T02:14:00.401Z,3.77
2023-05-04T02:16:27.131Z,4.10
2023-05-04T02:18:53.865Z,4.17
2023-05-04T02:21:20.824Z,3.90
2023-05-04T02:23:47.533Z,4.70
2023-05-04T02:26:14.197Z,3.87
2023-05-04T02:28:40.859Z,4.20
2023-05-04T02:31:07.734Z,3.60
2023-05-04T02:33:34.505Z,3.77
2023-05-04T02:36:01.233Z,3.70
2023-05-04T02:38:27.969Z,3.63
2023-05-04T02:40:54.927Z,4.40
2023-05-04T02:43:21.616Z,4.07
2023-05-04T02:45:48.386Z,4.13
2023-05-04T02:48:15.145Z,3.73
2023-05-04T02:50:41.854Z,3.63
2023-05-04T02:53:08.527Z,4.10
2023-05-04T02:55:35.221Z,4.20
2023-05-04T02:58:01.950Z,3.60
2023-05-04T03:00:28.613Z,4.13
2023-05-04T03:02:55.389Z,3.80
2023-05-04T03:05:22.332Z,3.50
2023-05-04T03:07:49.023Z,3.53
2023-05-04T03:10:15.848Z,4.43
2023-05-04T03:12:42.615Z,4.60
2023-05-04T03:15:09.437Z,3.93
2023-05-04T03:17:36.685Z,4.30
2023-05-04T03:20:04.207Z,4.20
2023-05-04T03:22:31.100Z,4.97
2023-05-04T03:24:57.798Z,4.63
2023-05-04T03:27:24.602Z,4.30
2023-05-04T03:29:53.539Z,4.73
2023-05-04T03:32:20.727Z,4.23
2023-05-04T03:34:47.456Z,4.50
2023-05-04T03:37:14.237Z,4.23
2023-05-04T03:39:41.291Z,4.60
2023-05-04T03:42:08.128Z,4.47
2023-05-04T03:44:34.902Z,4.37
2023-05-04T03:47:01.617Z,4.37
2023-05-04T03:49:28.320Z,4.43
2023-05-04T03:51:54.988Z,4.43
2023-05-04T03:54:21.650Z,4.37
2023-05-04T03:56:48.349Z,4.27
2023-05-04T03:59:15.000Z,4.83
2023-05-04T04:01:41.695Z,4.40
2023-05-04T04:04:08.462Z,4.67
2023-05-04T04:06:35.464Z,4.67
2023-05-04T04:09:02.115Z,5.23
2023-05-04T04:11:28.769Z,5.67
2023-05-04T04:13:55.939Z,5.50
2023-05-04T04:16:22.967Z,5.00
2023-05-04T04:18:52.166Z,5.40
2023-05-04T04:21:18.910Z,5.80
2023-05-04T04:23:45.592Z,4.70
2023-05-04T04:26:12.287Z,5.50
2023-05-04T04:28:38.954Z,5.03
2023-05-04T04:31:05.680Z,5.20
2023-05-04T04:33:32.930Z,5.43
2023-05-04T04:35:59.766Z,5.27
2023-05-04T04:38:26.826Z,5.73
2023-05-04T04:40:53.529Z,5.13
2023-05-04T04:43:20.512Z,6.00
2023-05-04T04:45:47.245Z,5.93
2023-05-04T04:48:14.577Z,5.00
2023-05-04T04:50:41.426Z,5.60
2023-05-04T04:53:08.161Z,5.73
2023-05-04T04:55:34.891Z,5.70
2023-05-04T04:58:01.702Z,5.00
2023-05-04T05:00:28.712Z,5.07
2023-05-04T05:02:55.626Z,5.27
2023-05-04T05:05:22.388Z,5.40
2023-05-04T05:07:49.070Z,5.20
2023-05-04T05:10:17.841Z,5.67
2023-05-04T05:12:44.899Z,5.67
2023-05-04T05:15:11.939Z,5.77
2023-05-04T05:17:39.296Z,6.17
2023-05-04T05:20:10.829Z,5.97
2023-05-04T05:22:41.277Z,5.80
2023-05-04T05:25:08.554Z,5.73
2023-05-04T05:27:35.481Z,5.97
2023-05-04T05:30:06.338Z,6.00
2023-05-04T05:32:33.621Z,5.67
2023-05-04T05:35:00.355Z,6.33
2023-05-04T05:37:27.705Z,6.50
2023-05-04T05:39:54.381Z,6.80
2023-05-04T05:42:21.450Z,7.33
2023-05-04T05:44:48.278Z,7.37
2023-05-04T05:47:15.038Z,7.43
2023-05-04T05:49:46.194Z,7.10
2023-05-04T05:52:13.202Z,7.23
2023-05-04T05:54:39.971Z,6.20
2023-05-04T05:57:06.728Z,7.30
2023-05-04T05:59:33.428Z,5.80
2023-05-04T06:02:00.295Z,6.73
2023-05-04T06:04:27.012Z,7.03
2023-05-04T06:06:53.708Z,7.70
2023-05-04T06:09:21.110Z,7.40
2023-05-04T06:11:47.928Z,6.93
2023-05-04T06:14:14.653Z,7.17
2023-05-04T06:16:41.442Z,7.67
2023-05-04T06:19:41.645Z,7.57
2023-05-04T06:22:08.551Z,7.77
2023-05-04T06:24:35.443Z,8.73
2023-05-04T06:27:02.760Z,7.90
2023-05-04T06:29:29.647Z,5.97
2023-05-04T06:31:58.972Z,5.60
2023-05-04T06:34:25.949Z,5.70
2023-05-04T06:36:52.847Z,5.40
2023-05-04T06:39:20.016Z,5.30
2023-05-04T06:41:47.128Z,5.57
2023-05-04T06:44:17.804Z,5.33
2023-05-04T06:46:44.605Z,4.97
2023-05-04T06:49:13.554Z,4.70
2023-05-04T06:51:40.375Z,5.30
2023-05-04T06:54:07.237Z,5.50
2023-05-04T06:56:34.573Z,4.80
2023-05-04T06:59:01.543Z,5.10
2023-05-04T07:01:28.407Z,4.07
2023-05-04T07:03:58.371Z,5.23
2023-05-04T07:06:28.626Z,4.87
2023-05-04T07:08:55.460Z,5.50
2023-05-04T07:11:22.194Z,5.10
2023-05-04T07:13:49.981Z,4.57
2023-05-04T07:16:16.804Z,4.50
2023-05-04T07:18:43.548Z,5.53
2023-05-04T07:21:26.973Z,5.30
2023-05-04T07:23:55.279Z,4.23
2023-05-04T07:26:23.320Z,3.80
2023-05-04T07:28:50.522Z,3.57
2023-05-04T07:31:17.692Z,3.77
2023-05-04T07:33:44.921Z,5.30
2023-05-04T07:36:13.853Z,4.20
2023-05-04T07:38:41.606Z,4.20
2023-05-04T07:41:09.117Z,4.80
2023-05-04T07:43:37.248Z,3.80
2023-05-04T07:46:10.554Z,4.03
2023-05-04T07:51:21.683Z,3.80
2023-05-04T07:53:48.294Z,4.33
2023-05-04T07:56:14.940Z,3.53
2023-05-04T07:58:42.052Z,3.83
2023-05-04T08:01:08.813Z,3.57
2023-05-04T08:03:35.828Z,3.20
2023-05-04T08:06:02.552Z,4.13
2023-05-04T08:08:29.283Z,3.33
2023-05-04T08:11:02.025Z,3.43
2023-05-04T08:13:35.059Z,3.30
2023-05-04T08:16:01.881Z,3.40
2023-05-04T08:18:28.676Z,4.00
2023-05-04T08:20:55.349Z,3.33
2023-05-04T08:23:22.265Z,4.23
2023-05-04T08:25:49.009Z,3.17
2023-05-04T08:28:18.361Z,3.80
2023-05-04T08:30:45.054Z,3.27
2023-05-04T08:33:12.089Z,3.60
2023-05-04T08:35:40.396Z,3.63
2023-05-04T08:38:10.134Z,3.70
2023-05-04T08:40:40.403Z,3.93
2023-05-04T08:43:07.557Z,2.97
2023-05-04T08:45:38.669Z,3.57
2023-05-04T08:48:09.555Z,3.53
2023-05-04T08:50:37.874Z,4.10
2023-05-04T08:53:13.785Z,3.27
2023-05-04T08:55:42.893Z,4.07
2023-05-04T08:58:14.185Z,3.00
2023-05-04T09:00:43.463Z,4.03
2023-05-04T09:03:11.305Z,3.93
2023-05-04T09:05:38.406Z,3.20
2023-05-04T09:08:06.496Z,4.20
2023-05-04T09:10:34.226Z,3.80
2023-05-04T09:13:01.013Z,3.77
2023-05-04T09:15:27.711Z,3.50
2023-05-04T09:17:57.981Z,4.23
2023-05-04T09:20:26.070Z,4.10
2023-05-04T09:23:07.783Z,4.23
2023-05-04T09:25:47.422Z,4.10
2023-05-04T09:28:14.876Z,4.17
2023-05-04T09:30:41.740Z,4.33
2023-05-04T09:33:09.276Z,4.37
2023-05-04T09:35:39.343Z,3.80
2023-05-04T09:38:07.374Z,4.00
2023-05-04T09:40:40.899Z,4.30
2023-05-04T09:43:08.712Z,4.03
2023-05-04T09:45:42.792Z,5.00
2023-05-04T09:48:20.521Z,3.83
2023-05-04T09:50:49.658Z,3.97
2023-05-04T09:53:18.153Z,3.73
2023-05-04T09:55:47.710Z,4.60
2023-05-04T09:58:16.808Z,4.23
2023-05-04T10:00:44.364Z,4.10
2023-05-04T10:03:12.235Z,4.83
2023-05-04T10:05:39.116Z,4.60
2023-05-04T10:08:06.607Z,5.13
2023-05-04T10:10:33.922Z,5.03
2023-05-04T10:13:00.679Z,4.20
2023-05-04T10:15:28.266Z,5.10
2023-05-04T10:17:54.969Z,4.77
2023-05-04T10:20:53.759Z,4.77
2023-05-04T10:23:50.955Z,4.70
2023-05-04T10:26:30.008Z,4.20
2023-05-04T10:29:23.483Z,4.57
2023-05-04T10:31:51.685Z,4.37
2023-05-04T10:34:28.752Z,4.77
2023-05-04T10:36:56.321Z,5.20
2023-05-04T10:39:26.498Z,4.60
2023-05-04T10:42:08.804Z,4.73
2023-05-04T10:44:37.527Z,4.97
2023-05-04T10:47:07.155Z,4.67
2023-05-04T10:49:35.618Z,4.70
2023-05-04T10:52:15.963Z,4.20
2023-05-04T10:54:43.584Z,4.80
2023-05-04T10:57:12.651Z,4.40
2023-05-04T10:59:40.495Z,4.27
2023-05-04T11:02:07.789Z,4.20
2023-05-04T11:04:35.101Z,4.10
2023-05-04T11:07:06.436Z,4.70
2023-05-04T11:09:42.072Z,4.27
2023-05-04T11:12:12.204Z,4.60
2023-05-04T11:14:43.300Z,4.83
2023-05-04T11:19:53.656Z,4.10
2023-05-04T11:22:20.599Z,4.10
2023-05-04T11:24:48.862Z,4.00
2023-05-04T11:27:27.561Z,4.40
2023-05-04T11:29:58.590Z,4.27
2023-05-04T11:32:40.547Z,4.20
2023-05-04T11:35:09.742Z,4.67
2023-05-04T11:37:41.290Z,4.13
2023-05-04T11:40:17.511Z,4.17
2023-05-04T11:42:44.872Z,4.80
2023-05-04T11:45:11.503Z,4.53
2023-05-04T11:47:38.783Z,5.70
2023-05-04T11:50:07.396Z,4.37
2023-05-04T11:52:36.424Z,4.20
2023-05-04T11:55:03.540Z,4.80
2023-05-04T11:57:33.163Z,4.80
2023-05-04T11:59:59.866Z,4.67
2023-05-04T12:02:30.609Z,4.63
2023-05-04T12:04:57.375Z,3.90
2023-05-04T12:07:24.172Z,4.67
2023-05-04T12:09:51.114Z,3.80
2023-05-04T12:12:20.423Z,4.13
2023-05-04T12:14:58.069Z,4.30
2023-05-04T12:17:24.830Z,4.30
2023-05-04T12:19:52.285Z,4.60
2023-05-04T12:22:27.883Z,4.47
2023-05-04T12:24:57.990Z,4.17
2023-05-04T12:27:25.438Z,4.70
2023-05-04T12:29:52.447Z,7.50
2023-05-04T12:32:19.869Z,4.23
2023-05-04T12:34:46.803Z,4.57
2023-05-04T12:37:13.434Z,4.77
2023-05-04T12:39:40.150Z,4.33
2023-05-04T12:42:06.801Z,4.30
2023-05-04T12:44:34.517Z,4.97
2023-05-04T12:47:01.548Z,4.20
2023-05-04T12:49:28.307Z,4.07
2023-05-04T12:51:54.999Z,3.83
2023-05-04T12:54:21.951Z,4.10
2023-05-04T12:56:50.889Z,4.03
2023-05-04T12:59:17.571Z,4.30
2023-05-04T13:01:44.438Z,4.57
2023-05-04T13:04:11.185Z,4.70
2023-05-04T13:06:37.939Z,4.83
2023-05-04T13:09:06.050Z,4.00
2023-05-04T13:11:32.957Z,4.17
2023-05-04T13:13:59.656Z,4.70
2023-05-04T13:16:28.087Z,4.40
2023-05-04T13:18:55.526Z,4.23
2023-05-04T13:21:22.304Z,4.30
2023-05-04T13:23:48.992Z,5.13
2023-05-04T13:26:15.766Z,5.27
2023-05-04T13:28:42.598Z,5.57
2023-05-04T13:31:09.835Z,4.40
2023-05-04T13:33:39.416Z,5.13
2023-05-04T13:36:07.039Z,4.80
2023-05-04T13:38:33.806Z,5.13
2023-05-04T13:41:00.555Z,4.90
2023-05-04T13:43:28.325Z,5.23
2023-05-04T13:45:57.087Z,4.50
2023-05-04T13:48:25.733Z,5.57
2023-05-04T13:50:52.771Z,4.80
2023-05-04T13:53:19.527Z,5.67
2023-05-04T13:55:46.900Z,6.37
2023-05-04T13:58:13.573Z,5.60
2023-05-04T14:00:40.352Z,4.43
2023-05-04T14:03:07.241Z,5.97
2023-05-04T14:05:35.478Z,6.47
2023-05-04T14:08:02.293Z,4.03
2023-05-04T14:10:30.247Z,4.17
2023-05-04T14:12:56.964Z,4.63
2023-05-04T14:15:23.941Z,7.23
2023-05-04T14:17:50.750Z,3.87
2023-05-04T14:20:18.084Z,4.80
2023-05-04T14:22:45.078Z,4.10
2023-05-04T14:25:12.786Z,4.40
2023-05-04T14:27:39.532Z,4.10
2023-05-04T14:30:09.382Z,3.47
2023-05-04T14:32:36.531Z,3.30
2023-05-04T14:35:08.193Z,4.10
2023-05-04T14:37:37.484Z,3.80
2023-05-04T14:40:06.494Z,3.97
2023-05-04T14:42:33.728Z,3.77
2023-05-04T14:45:00.522Z,4.03
2023-05-04T14:47:28.702Z,4.03
2023-05-04T14:49:55.587Z,3.67
2023-05-04T14:52:22.276Z,3.70
2023-05-04T14:54:49.000Z,3.13
2023-05-04T14:57:19.043Z,3.63
2023-05-04T14:59:45.763Z,3.70
2023-05-04T15:02:12.645Z,3.53
2023-05-04T15:04:39.450Z,3.97
2023-05-04T15:07:06.145Z,4.10
2023-05-04T15:09:32.833Z,3.20
2023-05-04T15:11:59.581Z,3.10
2023-05-04T15:14:26.583Z,3.23
2023-05-04T15:16:53.362Z,2.90
2023-05-04T15:19:21.173Z,2.70
2023-05-04T15:21:49.328Z,4.70
2023-05-04T15:24:16.032Z,3.03
2023-05-04T15:26:42.721Z,2.77
2023-05-04T15:29:09.407Z,2.80
2023-05-04T15:31:36.187Z,3.10
2023-05-04T15:34:02.931Z,3.03
2023-05-04T15:36:31.709Z,3.03
2023-05-04T15:38:58.494Z,2.83
2023-05-04T15:41:25.161Z,2.70
2023-05-04T15:43:51.928Z,2.97
2023-05-04T15:46:18.647Z,2.80
2023-05-04T15:48:45.467Z,2.63
2023-05-04T15:51:12.375Z,3.10
2023-05-04T15:53:39.949Z,3.00
2023-05-04T15:56:06.674Z,2.57
2023-05-04T15:58:33.567Z,2.60
2023-05-04T16:01:03.788Z,2.90
2023-05-04T16:03:31.661Z,3.27
2023-05-04T16:06:01.173Z,2.83
2023-05-04T16:08:28.046Z,3.13
2023-05-04T16:10:56.222Z,2.57
2023-05-04T16:13:23.112Z,2.60
2023-05-04T16:15:53.296Z,2.90
2023-05-04T16:18:21.400Z,3.00
2023-05-04T16:20:48.570Z,2.40
2023-05-04T16:23:17.353Z,2.73
2023-05-04T16:25:44.505Z,2.43
2023-05-04T16:28:11.839Z,2.87
2023-05-04T16:30:38.947Z,2.60
2023-05-04T16:33:05.774Z,2.60
2023-05-04T16:35:34.870Z,2.90
2023-05-04T16:38:01.536Z,3.60
2023-05-04T16:40:28.296Z,3.37
2023-05-04T16:42:55.005Z,2.90
2023-05-04T16:45:24.696Z,3.30
2023-05-04T16:47:52.239Z,2.90
2023-05-04T16:50:18.887Z,3.30
2023-05-04T16:52:45.660Z,4.07
2023-05-04T16:55:12.707Z,3.57
2023-05-04T16:57:39.801Z,4.10
2023-05-04T17:00:07.759Z,4.13
2023-05-04T17:02:35.416Z,4.90
2023-05-04T17:05:04.641Z,3.97
2023-05-04T17:07:31.329Z,3.93
2023-05-04T17:09:58.067Z,4.63
2023-05-04T17:12:27.486Z,4.03
2023-05-04T17:14:54.433Z,3.90
2023-05-04T17:17:21.488Z,3.73
2023-05-04T17:19:48.156Z,3.10
2023-05-04T17:22:15.061Z,3.80
2023-05-04T17:24:44.105Z,4.70
2023-05-04T17:27:12.610Z,3.73
2023-05-04T17:29:41.014Z,4.03
2023-05-04T17:32:10.645Z,3.30
2023-05-04T17:34:37.737Z,3.90
2023-05-04T17:37:04.501Z,3.63
2023-05-04T17:39:31.750Z,3.13
2023-05-04T17:41:58.855Z,2.80
2023-05-04T17:44:26.117Z,2.70
2023-05-04T17:46:52.827Z,2.40
2023-05-04T17:49:19.643Z,2.97
2023-05-04T17:51:49.069Z,2.60
2023-05-04T17:54:16.513Z,2.30
2023-05-04T17:56:43.230Z,2.27
2023-05-04T17:59:09.967Z,2.00
2023-05-04T18:01:36.656Z,1.90
2023-05-04T18:04:04.173Z,2.00
2023-05-04T18:06:33.824Z,2.10
2023-05-04T18:09:00.884Z,2.30
2023-05-04T18:11:27.765Z,2.23
2023-05-04T18:13:56.433Z,1.83
2023-05-04T18:16:24.320Z,2.40
2023-05-04T18:18:51.361Z,2.77
2023-05-04T18:21:18.525Z,2.90
2023-05-04T18:23:45.667Z,2.43
2023-05-04T18:26:19.928Z,2.50
2023-05-04T18:28:46.605Z,2.60
2023-05-04T18:31:13.426Z,2.00
2023-05-04T18:33:42.500Z,2.20
2023-05-04T18:36:09.340Z,2.47
2023-05-04T18:38:37.185Z,2.40
2023-05-04T18:41:04.785Z,2.30
2023-05-04T18:43:31.635Z,2.20
2023-05-04T18:45:58.563Z,2.37
2023-05-04T18:48:25.372Z,2.40
2023-05-04T18:50:57.132Z,2.20
2023-05-04T18:53:24.368Z,2.13
2023-05-04T18:56:08.634Z,2.03
2023-05-04T18:58:38.992Z,2.23
2023-05-04T19:01:06.136Z,1.90
2023-05-04T19:03:32.981Z,2.60
2023-05-04T19:05:59.792Z,2.43
2023-05-04T19:08:27.879Z,2.30
2023-05-04T19:10:59.148Z,2.23
2023-05-04T19:13:26.013Z,2.20
2023-05-04T19:15:52.812Z,2.90
2023-05-04T19:18:19.537Z,2.67
2023-05-04T19:20:46.427Z,3.00
2023-05-04T19:23:13.115Z,3.20
2023-05-04T19:25:39.997Z,3.00
2023-05-04T19:28:09.841Z,2.43
2023-05-04T19:30:37.075Z,2.37
2023-05-04T19:33:04.687Z,2.67
2023-05-04T19:35:31.422Z,2.47
2023-05-04T19:37:58.185Z,2.23
2023-05-04T19:40:26.275Z,2.23
2023-05-04T19:42:53.008Z,2.70
2023-05-04T19:45:19.759Z,2.33
2023-05-04T19:47:47.318Z,2.27
2023-05-04T19:50:15.814Z,2.17
2023-05-04T19:52:45.933Z,2.20
2023-05-04T19:55:12.902Z,2.53
2023-05-04T19:57:39.756Z,2.57
2023-05-04T20:00:09.714Z,2.40
2023-05-04T20:02:38.110Z,2.20
2023-05-04T20:05:08.190Z,2.40
2023-05-04T20:07:34.914Z,3.13
2023-05-04T20:10:01.705Z,2.50
2023-05-04T20:12:28.702Z,2.10
2023-05-04T20:14:55.548Z,2.33
2023-05-04T20:17:22.714Z,2.60
2023-05-04T20:19:49.980Z,2.10
2023-05-04T20:22:16.863Z,2.37
2023-05-04T20:24:43.570Z,2.27
2023-05-04T20:27:10.429Z,2.30
2023-05-04T20:29:37.128Z,2.47
2023-05-04T20:32:05.098Z,2.30
2023-05-04T20:34:32.192Z,2.27
2023-05-04T20:36:58.962Z,2.00
2023-05-04T20:39:25.732Z,2.10
2023-05-04T20:41:52.990Z,1.90
2023-05-04T20:44:19.733Z,2.40
2023-05-04T20:46:46.437Z,2.17
2023-05-04T20:49:13.521Z,2.30
2023-05-04T20:51:40.231Z,1.87
2023-05-04T20:54:06.951Z,2.37
2023-05-04T20:56:33.687Z,1.90
2023-05-04T20:59:00.511Z,2.00
2023-05-04T21:01:27.297Z,1.97
2023-05-04T21:03:54.005Z,2.00
2023-05-04T21:06:21.056Z,2.00
2023-05-04T21:08:47.771Z,2.03
2023-05-04T21:11:14.440Z,1.90
2023-05-04T21:13:41.111Z,1.90
2023-05-04T21:16:08.734Z,1.83
2023-05-04T21:18:35.732Z,1.90
2023-05-04T21:21:05.864Z,1.80
2023-05-04T21:23:32.655Z,1.90
2023-05-04T21:26:05.675Z,1.80
2023-05-04T21:28:32.376Z,2.20
2023-05-04T21:30:59.167Z,1.70
2023-05-04T21:33:28.714Z,1.87
2023-05-04T21:35:55.391Z,1.90
2023-05-04T21:38:22.509Z,1.50
2023-05-04T21:40:49.439Z,1.87
2023-05-04T21:43:16.326Z,1.63
2023-05-04T21:45:43.100Z,1.50
2023-05-04T21:48:09.930Z,1.70
2023-05-04T21:50:36.653Z,1.70
2023-05-04T21:53:03.367Z,1.40
2023-05-04T21:55:30.458Z,1.30
2023-05-04T21:57:57.391Z,1.77
2023-05-04T22:00:24.360Z,1.60
2023-05-04T22:02:54.639Z,1.40
2023-05-04T22:05:22.459Z,1.40
2023-05-04T22:07:49.894Z,1.47
2023-05-04T22:10:18.548Z,1.40
2023-05-04T22:12:45.469Z,1.43
2023-05-04T22:15:12.299Z,1.33
2023-05-04T22:17:39.182Z,1.30
2023-05-04T22:20:07.292Z,0.97
2023-05-04T22:22:34.657Z,1.30
2023-05-04T22:25:01.732Z,1.53
2023-05-04T22:27:28.504Z,1.10
2023-05-04T22:29:55.323Z,1.33
2023-05-04T22:32:22.009Z,1.10
2023-05-04T22:34:48.762Z,1.40
2023-05-04T22:37:15.463Z,1.20
2023-05-04T22:39:42.159Z,1.00
2023-05-04T22:42:08.792Z,1.13
2023-05-04T22:44:35.570Z,1.20
2023-05-04T22:47:02.276Z,1.13
2023-05-04T22:49:28.918Z,1.30
2023-05-04T22:51:55.578Z,1.50
2023-05-04T22:54:22.442Z,1.50
2023-05-04T22:56:49.127Z,1.17
2023-05-04T22:59:15.850Z,1.13
2023-05-04T23:01:43.428Z,1.20
2023-05-04T23:04:11.501Z,1.60
2023-05-04T23:06:38.674Z,1.17
2023-05-04T23:09:05.490Z,1.30
2023-05-04T23:11:32.476Z,1.43
2023-05-04T23:13:59.379Z,1.20
2023-05-04T23:16:26.166Z,1.20
2023-05-04T23:18:52.865Z,1.80
2023-05-04T23:21:22.327Z,1.47
2023-05-04T23:23:51.605Z,1.50
2023-05-04T23:26:18.497Z,1.23
2023-05-04T23:28:45.287Z,1.50
2023-05-04T23:31:12.035Z,1.63
2023-05-04T23:33:38.726Z,1.93
2023-05-04T23:36:05.622Z,1.40
2023-05-04T23:38:32.310Z,1.77
2023-05-04T23:41:01.272Z,1.90
2023-05-04T23:43:27.904Z,2.13
2023-05-04T23:46:05.009Z,1.90
2023-05-04T23:48:32.776Z,2.07
2023-05-04T23:51:06.480Z,2.20
2023-05-04T23:53:33.889Z,2.00
2023-05-04T23:56:05.046Z,2.00
2023-05-04T23:58:33.423Z,2.17
